Time;durP1;ratioP1;P1;durP2;ratioP2;P2;SDS_P1;SDS_P2;PMS_P1;PMS_P2;Temp;Humidity;BMP_temperature;BMP_pressure;BME280_temperature;BME280_humidity;BME280_pressure;Samples;Min_cycle;Max_cycle;Signal;HPM_P1;HPM_P2
2022/12/14 00:02:23;;;;;;;51.28;24.17;;;;;;;;;;5050883;28;20048;-82
2022/12/14 00:05:09;;;;;;;42.08;22.38;;;;;;;;;;5050925;28;20048;-83
2022/12/14 00:07:55;;;;;;;40.47;23.50;;;;;;;;;;5064126;28;20045;-83
2022/12/14 00:10:48;;;;;;;45.75;19.98;;;;;;;;;;5073634;28;20037;-88
2022/12/14 00:13:35;;;;;;;132.23;55.58;;;;;;;;;;5050373;28;20394;-83
2022/12/14 00:17:10;;;;;;;32.42;17.08;;;;;;;;;;5065584;28;20049;-89
2022/12/14 00:19:56;;;;;;;38.17;20.35;;;;;;;;;;5068604;28;20416;-85
2022/12/14 00:22:42;;;;;;;52.92;24.40;;;;;;;;;;5072596;28;20060;-87
2022/12/14 00:25:33;;;;;;;41.53;20.45;;;;;;;;;;5058099;28;20393;-88
2022/12/14 00:51:07;;;;;;;;;;;;;;;;;;;;;
2022/12/14 00:59:09;;;;;;;;;;;;;;;;;;;;;
2022/12/14 01:19:57;;;;;;;28.33;15.35;;;;;;;;;;4958827;28;20041;-87
2022/12/14 01:32:12;;;;;;;27.83;13.88;;;;;;;;;;4954880;29;20059;-87
2022/12/14 01:56:49;;;;;;;21.98;12.95;;;;;;;;;;4861506;29;20049;-86
2022/12/14 02:04:51;;;;;;;;;;;;;;;;;;;;;
2022/12/14 02:31:14;;;;;;;21.80;13.77;;;;;;;;;;4841436;29;20500;-86
2022/12/14 02:56:41;;;;;;;;;;;;;;;;;;;;;
2022/12/14 03:12:08;;;;;;;17.48;9.27;;;;;;;;;;4991985;28;20526;-85
2022/12/14 03:15:18;;;;;;;22.10;12.52;;;;;;;;;;4987465;28;20046;-88
2022/12/14 03:18:20;;;;;;;31.15;15.75;;;;;;;;;;5017446;28;20042;-85
2022/12/14 03:21:11;;;;;;;22.60;13.05;;;;;;;;;;5078185;28;20255;-86
2022/12/14 03:24:03;;;;;;;34.22;18.15;;;;;;;;;;5058543;28;20044;-86
2022/12/14 03:27:13;;;;;;;23.98;13.52;;;;;;;;;;5064702;28;20469;-87
2022/12/14 03:30:19;;;;;;;23.88;13.30;;;;;;;;;;5058094;28;20397;-86
2022/12/14 03:33:19;;;;;;;17.92;11.30;;;;;;;;;;5051815;28;20040;-87
2022/12/14 03:36:52;;;;;;;;;;;;;;;;;;;;;
2022/12/14 03:39:41;;;;;;;;;;;;;;;;;;5065168;28;20044;-87
2022/12/14 03:43:04;;;;;;;14.63;8.93;;;;;;;;;;5073022;28;19913;-87
2022/12/14 03:46:45;;;;;;;;;;;;;;;;;;;;;
2022/12/14 03:50:01;;;;;;;;;;;;;;;;;;;;;
2022/12/14 03:53:09;;;;;;;16.33;9.85;;;;;;;;;;5073197;28;20478;-87
2022/12/14 03:56:19;;;;;;;20.27;12.05;;;;;;;;;;5072979;28;20045;-85
2022/12/14 03:59:33;;;;;;;24.73;13.50;;;;;;;;;;5052833;28;20037;-87
2022/12/14 04:02:50;;;;;;;25.42;12.45;;;;;;;;;;5053797;28;20037;-86
2022/12/14 04:05:45;;;;;;;18.65;10.95;;;;;;;;;;5015347;28;20044;-85
2022/12/14 04:08:49;;;;;;;12.35;8.13;;;;;;;;;;5043491;28;20045;-86
2022/12/14 04:21:57;;;;;;;23.80;13.15;;;;;;;;;;5056716;28;20049;-86
2022/12/14 04:32:08;;;;;;;16.60;10.18;;;;;;;;;;5047956;28;20088;-92
2022/12/14 04:35:43;;;;;;;;;;;;;;;;;;;;;
2022/12/14 04:39:13;;;;;;;;;;;;;;;;;;;;;
2022/12/14 04:42:49;;;;;;;20.35;11.55;;;;;;;;;;5056028;28;20052;-87
2022/12/14 04:46:34;;;;;;;;;;;;;;;;;;;;;
2022/12/14 05:07:24;;;;;;;19.35;11.88;;;;;;;;;;4954368;28;20038;-88
2022/12/14 05:11:08;;;;;;;16.48;10.15;;;;;;;;;;4899190;29;20450;-89
2022/12/14 05:28:13;;;;;;;18.58;11.23;;;;;;;;;;4788098;29;20055;-86
2022/12/14 05:31:28;;;;;;;15.18;9.35;;;;;;;;;;4788142;30;20473;-85
2022/12/14 05:34:41;;;;;;;16.88;9.88;;;;;;;;;;4931585;29;20057;-84
2022/12/14 05:37:39;;;;;;;;;;;;;;;;;;4948012;28;20047;-86
2022/12/14 05:49:11;;;;;;;19.02;9.73;;;;;;;;;;5050216;28;20402;-87
2022/12/14 05:52:24;;;;;;;;;;;;;;;;;;;;;
2022/12/14 05:56:25;;;;;;;23.08;13.98;;;;;;;;;;5060025;28;20045;-86
2022/12/14 06:00:11;;;;;;;15.45;10.07;;;;;;;;;;5066851;28;20401;-88
2022/12/14 06:03:24;;;;;;;21.52;13.07;;;;;;;;;;5074551;28;20421;-90
2022/12/14 06:06:20;;;;;;;24.05;13.95;;;;;;;;;;5067476;28;20048;-85
2022/12/14 06:09:07;;;;;;;20.60;12.30;;;;;;;;;;5059632;28;20036;-86
2022/12/14 06:12:31;;;;;;;;;;;;;;;;;;;;;
2022/12/14 06:16:10;;;;;;;25.63;14.02;;;;;;;;;;5072543;28;20037;-86
2022/12/14 06:19:21;;;;;;;17.42;9.40;;;;;;;;;;5048881;28;20053;-89
2022/12/14 06:22:24;;;;;;;22.60;14.23;;;;;;;;;;5064425;28;20044;-89
2022/12/14 06:25:09;;;;;;;16.77;10.50;;;;;;;;;;5059448;28;20406;-85
2022/12/14 06:27:55;;;;;;;13.38;8.45;;;;;;;;;;5059460;28;20044;-84
2022/12/14 06:30:40;;;;;;;26.20;14.02;;;;;;;;;;5066231;28;20037;-84
2022/12/14 06:33:27;;;;;;;24.00;15.07;;;;;;;;;;5059282;28;20147;-88
2022/12/14 06:36:50;;;;;;;20.27;11.98;;;;;;;;;;5076138;28;20040;-85
2022/12/14 06:39:49;;;;;;;18.50;11.02;;;;;;;;;;5061187;28;20041;-89
2022/12/14 06:47:43;;;;;;;;;;;;;;;;;;;;;
2022/12/14 06:50:41;;;;;;;20.33;13.57;;;;;;;;;;5080797;28;20032;-86
2022/12/14 06:54:03;;;;;;;27.00;14.52;;;;;;;;;;5052694;28;20044;-87
2022/12/14 06:57:42;;;;;;;25.88;14.70;;;;;;;;;;5075736;28;20111;-90
2022/12/14 07:01:11;;;;;;;30.95;15.82;;;;;;;;;;5015555;28;20053;-90
2022/12/14 07:04:28;;;;;;;25.27;14.05;;;;;;;;;;5026052;28;20036;-86
2022/12/14 07:07:46;;;;;;;36.00;17.23;;;;;;;;;;5054855;28;20041;-89
2022/12/14 07:10:52;;;;;;;22.20;11.48;;;;;;;;;;5032505;28;20032;-90
2022/12/14 07:17:13;;;;;;;;;;;;;;;;;;;;;
2022/12/14 07:20:15;;;;;;;19.35;11.43;;;;;;;;;;5046675;28;20045;-89
2022/12/14 07:26:49;;;;;;;19.83;11.82;;;;;;;;;;5054285;28;20049;-86
2022/12/14 07:29:37;;;;;;;20.67;12.50;;;;;;;;;;5045299;28;20029;-86
2022/12/14 07:32:26;;;;;;;23.58;12.27;;;;;;;;;;5045690;28;20045;-88
2022/12/14 07:35:11;;;;;;;26.35;13.82;;;;;;;;;;5039194;28;20049;-87
2022/12/14 07:37:58;;;;;;;14.45;8.43;;;;;;;;;;5046998;28;20052;-86
2022/12/14 07:40:44;;;;;;;35.88;20.23;;;;;;;;;;5058090;28;20418;-87
2022/12/14 07:43:29;;;;;;;19.45;9.70;;;;;;;;;;5042607;28;20049;-84
2022/12/14 07:46:19;;;;;;;40.90;16.20;;;;;;;;;;5057789;28;20037;-86
2022/12/14 07:49:03;;;;;;;18.38;12.20;;;;;;;;;;5068665;28;20041;-89
2022/12/14 07:51:51;;;;;;;26.08;15.98;;;;;;;;;;5069275;28;20041;-85
2022/12/14 07:54:36;;;;;;;20.38;11.55;;;;;;;;;;5045179;28;20044;-85
2022/12/14 07:57:21;;;;;;;21.17;13.65;;;;;;;;;;5057088;28;20036;-87
2022/12/14 08:00:08;;;;;;;31.13;16.77;;;;;;;;;;5058164;28;20475;-83
2022/12/14 08:02:56;;;;;;;14.95;10.60;;;;;;;;;;5063383;28;20049;-84
2022/12/14 08:05:42;;;;;;;19.88;10.52;;;;;;;;;;5062823;28;20478;-87
2022/12/14 08:08:28;;;;;;;26.13;15.00;;;;;;;;;;5058114;28;20398;-87
2022/12/14 08:11:14;;;;;;;26.70;14.30;;;;;;;;;;5042116;28;20044;-87
2022/12/14 08:14:10;;;;;;;19.00;12.35;;;;;;;;;;5057010;28;20041;-86
2022/12/14 08:17:00;;;;;;;17.30;10.57;;;;;;;;;;5055941;28;20049;-84
2022/12/14 08:19:48;;;;;;;27.65;15.60;;;;;;;;;;5055287;28;20040;-81
2022/12/14 08:22:33;;;;;;;20.52;13.07;;;;;;;;;;5056727;28;20410;-79
2022/12/14 08:25:19;;;;;;;19.92;12.82;;;;;;;;;;5056509;28;20041;-82
2022/12/14 08:28:11;;;;;;;18.55;11.98;;;;;;;;;;5057510;28;20041;-86
2022/12/14 08:31:26;;;;;;;;;;;;;;;;;;;;;
2022/12/14 08:34:22;;;;;;;17.60;10.38;;;;;;;;;;5058206;28;20044;-81
2022/12/14 08:37:11;;;;;;;20.02;12.45;;;;;;;;;;5056889;28;20089;-87
2022/12/14 08:39:57;;;;;;;20.67;13.48;;;;;;;;;;5056008;28;20045;-81
2022/12/14 08:42:42;;;;;;;25.00;14.73;;;;;;;;;;5063532;28;20053;-80
2022/12/14 08:45:28;;;;;;;18.80;11.18;;;;;;;;;;5056236;28;20037;-77
2022/12/14 08:48:36;;;;;;;16.90;11.07;;;;;;;;;;5062210;28;20044;-87
2022/12/14 09:30:51;;;;;;;;;;;;;;;;;;;;;
2022/12/14 09:44:00;;;;;;;18.58;11.75;;;;;;;;;;4906405;29;20048;-90
2022/12/14 09:57:06;;;;;;;;;;;;;;;;;;;;;
2022/12/14 10:04:34;;;;;;;20.58;11.90;;;;;;;;;;4938005;28;20043;-87
2022/12/14 10:09:05;;;;;;;;;;;;;;;;;;;;;
2022/12/14 10:21:50;;;;;;;;;;;;;;;;;;4934326;29;20044;-87
2022/12/14 10:25:46;;;;;;;;;;;;;;;;;;;;;
2022/12/14 10:29:46;;;;;;;;;;;;;;;;;;;;;
2022/12/14 10:38:08;;;;;;;20.67;11.20;;;;;;;;;;4943494;29;20048;-89
2022/12/14 11:04:08;;;;;;;15.77;10.60;;;;;;;;;;4814170;29;20496;-87
2022/12/14 11:08:16;;;;;;;15.98;10.55;;;;;;;;;;4824260;29;20085;-86
2022/12/14 11:19:19;;;;;;;15.73;10.52;;;;;;;;;;4963722;28;20051;-88
2022/12/14 11:27:05;;;;;;;13.63;8.43;;;;;;;;;;5013948;28;20046;-90
2022/12/14 11:35:05;;;;;;;10.77;7.72;;;;;;;;;;5019879;28;20021;-89
2022/12/14 11:50:47;;;;;;;13.65;8.65;;;;;;;;;;4899428;29;20053;-91
2022/12/14 12:15:19;;;;;;;11.65;8.88;;;;;;;;;;5054702;28;20041;-89
2022/12/14 12:19:07;;;;;;;13.23;8.15;;;;;;;;;;5052929;28;20044;-90
2022/12/14 12:22:24;;;;;;;12.82;7.63;;;;;;;;;;5095224;22;20029;-80
2022/12/14 12:25:16;;;;;;;18.67;9.90;;;;;;;;;;5083674;28;20041;-80
2022/12/14 12:28:13;;;;;;;13.43;8.52;;;;;;;;;;5076323;28;20036;-80
2022/12/14 12:31:06;;;;;;;10.77;7.70;;;;;;;;;;5076609;28;20391;-80
2022/12/14 12:34:02;;;;;;;11.43;7.63;;;;;;;;;;5083021;28;20040;-81
2022/12/14 12:36:49;;;;;;;30.83;16.33;;;;;;;;;;5076725;28;20036;-81
2022/12/14 12:39:35;;;;;;;18.02;10.35;;;;;;;;;;5083274;28;20388;-80
2022/12/14 12:42:33;;;;;;;13.82;9.10;;;;;;;;;;5076094;28;20049;-80
2022/12/14 12:46:01;;;;;;;55.97;31.42;;;;;;;;;;5076218;28;20040;-80
2022/12/14 12:48:50;;;;;;;24.67;12.90;;;;;;;;;;5083104;28;20044;-79
2022/12/14 12:52:06;;;;;;;21.02;12.02;;;;;;;;;;5076284;28;20048;-79
2022/12/14 12:55:18;;;;;;;18.10;11.90;;;;;;;;;;5076342;28;20037;-79
2022/12/14 12:58:08;;;;;;;17.35;10.13;;;;;;;;;;5076075;28;20084;-82
2022/12/14 13:01:01;;;;;;;16.23;9.40;;;;;;;;;;5082710;28;20036;-82
2022/12/14 13:03:50;;;;;;;19.85;10.95;;;;;;;;;;5075904;28;20048;-79
2022/12/14 13:06:45;;;;;;;19.13;11.85;;;;;;;;;;5082739;28;20040;-80
2022/12/14 13:09:46;;;;;;;15.85;9.05;;;;;;;;;;5076385;28;20040;-80
2022/12/14 13:12:37;;;;;;;17.58;8.63;;;;;;;;;;5075847;28;20422;-81
2022/12/14 13:15:27;;;;;;;13.77;9.43;;;;;;;;;;5076289;28;20044;-80
2022/12/14 13:18:13;;;;;;;10.68;7.15;;;;;;;;;;5075702;28;20048;-80
2022/12/14 13:21:04;;;;;;;13.90;8.20;;;;;;;;;;5083013;28;20044;-81
2022/12/14 13:23:49;;;;;;;15.35;9.30;;;;;;;;;;5077438;28;20447;-80
2022/12/14 13:27:00;;;;;;;10.95;7.63;;;;;;;;;;5075244;28;20040;-80
2022/12/14 13:29:51;;;;;;;11.00;7.30;;;;;;;;;;5076041;28;20040;-81
2022/12/14 13:32:57;;;;;;;26.55;12.57;;;;;;;;;;5082239;28;20040;-81
2022/12/14 13:36:16;;;;;;;11.02;6.90;;;;;;;;;;5082711;28;20044;-81
2022/12/14 13:39:38;;;;;;;19.88;12.23;;;;;;;;;;5075663;28;20037;-81
2022/12/14 13:42:45;;;;;;;37.95;19.30;;;;;;;;;;5060467;28;20037;-80
2022/12/14 13:45:40;;;;;;;21.90;10.98;;;;;;;;;;5081754;28;20048;-82
2022/12/14 13:48:36;;;;;;;95.63;44.33;;;;;;;;;;5074589;28;20032;-80
2022/12/14 13:51:48;;;;;;;163.70;63.53;;;;;;;;;;5075364;28;20037;-80
2022/12/14 13:54:38;;;;;;;49.40;30.38;;;;;;;;;;5081441;28;20044;-80
2022/12/14 13:57:25;;;;;;;39.22;26.92;;;;;;;;;;5075257;28;20375;-81
2022/12/14 14:00:44;;;;;;;22.75;11.90;;;;;;;;;;5075010;28;20040;-82
2022/12/14 14:03:35;;;;;;;15.25;8.93;;;;;;;;;;5057373;28;20048;-81
2022/12/14 14:06:28;;;;;;;10.85;6.63;;;;;;;;;;5081728;28;20044;-80
2022/12/14 14:09:29;;;;;;;12.13;6.75;;;;;;;;;;5074398;28;20041;-80
2022/12/14 14:12:42;;;;;;;11.82;8.45;;;;;;;;;;5074929;28;20464;-80
2022/12/14 14:15:35;;;;;;;14.13;8.65;;;;;;;;;;5074104;28;20041;-82
2022/12/14 14:18:26;;;;;;;18.95;11.15;;;;;;;;;;5075065;28;20041;-81
2022/12/14 14:21:12;;;;;;;17.42;10.70;;;;;;;;;;5074396;28;20467;-82
2022/12/14 14:24:18;;;;;;;20.30;12.73;;;;;;;;;;5074434;28;20044;-81
2022/12/14 14:27:19;;;;;;;15.82;10.70;;;;;;;;;;5074214;28;20040;-82
2022/12/14 14:30:34;;;;;;;18.58;11.88;;;;;;;;;;5074287;28;20423;-81
2022/12/14 14:33:30;;;;;;;25.15;16.77;;;;;;;;;;5060935;28;20044;-81
2022/12/14 14:36:35;;;;;;;29.17;19.08;;;;;;;;;;5074128;28;20040;-81
2022/12/14 14:39:31;;;;;;;27.95;15.27;;;;;;;;;;5081117;28;20044;-81
2022/12/14 14:42:21;;;;;;;16.60;11.50;;;;;;;;;;5073994;28;20029;-81
2022/12/14 14:45:19;;;;;;;18.60;11.93;;;;;;;;;;5080902;28;20040;-81
2022/12/14 14:48:19;;;;;;;16.42;10.73;;;;;;;;;;5074224;28;20468;-81
2022/12/14 14:51:20;;;;;;;22.05;11.00;;;;;;;;;;5080469;28;20049;-81
2022/12/14 14:54:26;;;;;;;23.23;12.93;;;;;;;;;;5074356;28;20479;-81
2022/12/14 14:57:53;;;;;;;17.27;11.48;;;;;;;;;;5073972;28;20064;-81
2022/12/14 15:00:46;;;;;;;14.20;9.38;;;;;;;;;;5077997;28;20041;-80
2022/12/14 15:03:39;;;;;;;18.88;10.35;;;;;;;;;;5074412;28;20044;-79
2022/12/14 15:06:39;;;;;;;13.60;9.20;;;;;;;;;;5080164;28;20478;-81
2022/12/14 15:09:46;;;;;;;11.65;7.75;;;;;;;;;;5073570;28;20040;-81
2022/12/14 15:12:50;;;;;;;25.80;15.63;;;;;;;;;;5080234;28;20040;-80
2022/12/14 15:15:46;;;;;;;16.77;10.32;;;;;;;;;;5073934;28;20044;-80
2022/12/14 15:18:31;;;;;;;19.02;11.77;;;;;;;;;;5080065;28;20048;-80
2022/12/14 15:21:17;;;;;;;13.45;7.80;;;;;;;;;;5073926;28;20032;-82
2022/12/14 15:24:03;;;;;;;18.63;9.20;;;;;;;;;;5073354;28;20040;-81
2022/12/14 15:26:49;;;;;;;12.68;7.82;;;;;;;;;;5064799;28;20041;-80
2022/12/14 15:29:35;;;;;;;20.50;11.20;;;;;;;;;;5080602;28;20456;-81
2022/12/14 15:32:22;;;;;;;22.35;13.32;;;;;;;;;;5065039;28;20390;-81
2022/12/14 15:35:15;;;;;;;23.88;14.07;;;;;;;;;;5073561;28;20037;-80
2022/12/14 15:38:05;;;;;;;15.73;10.23;;;;;;;;;;5079932;28;20387;-79
2022/12/14 15:40:59;;;;;;;21.85;13.60;;;;;;;;;;5073151;28;20045;-81
2022/12/14 15:43:46;;;;;;;14.45;9.88;;;;;;;;;;5073329;28;20045;-82
2022/12/14 15:46:33;;;;;;;21.17;12.98;;;;;;;;;;5079633;28;20383;-81
2022/12/14 15:49:22;;;;;;;12.32;8.48;;;;;;;;;;5079828;28;20467;-81
2022/12/14 15:52:09;;;;;;;22.08;14.98;;;;;;;;;;5062747;28;20032;-80
2022/12/14 15:54:56;;;;;;;22.13;13.73;;;;;;;;;;5067931;28;20045;-83
2022/12/14 15:57:42;;;;;;;20.73;10.68;;;;;;;;;;5068263;28;20041;-82
2022/12/14 16:00:27;;;;;;;29.33;15.25;;;;;;;;;;5070079;28;20049;-81
2022/12/14 16:03:22;;;;;;;23.55;12.13;;;;;;;;;;5070453;28;20045;-80
2022/12/14 16:06:10;;;;;;;24.55;12.57;;;;;;;;;;5059691;28;20040;-81
2022/12/14 16:08:58;;;;;;;36.78;19.98;;;;;;;;;;5056723;28;20037;-80
2022/12/14 16:11:47;;;;;;;17.58;11.93;;;;;;;;;;5063466;28;20045;-81
2022/12/14 16:14:42;;;;;;;27.30;17.60;;;;;;;;;;5063251;28;20045;-80
2022/12/14 16:17:31;;;;;;;23.25;12.80;;;;;;;;;;5057161;28;20037;-81
2022/12/14 16:20:29;;;;;;;56.28;29.40;;;;;;;;;;5056974;28;20041;-80
2022/12/14 16:23:14;;;;;;;38.72;21.67;;;;;;;;;;5060098;28;20037;-81
2022/12/14 16:26:18;;;;;;;30.10;18.67;;;;;;;;;;5056521;28;20041;-81
2022/12/14 16:29:19;;;;;;;31.58;17.98;;;;;;;;;;5063036;28;20464;-80
2022/12/14 16:32:13;;;;;;;24.50;14.30;;;;;;;;;;5063155;28;20049;-82
2022/12/14 16:35:00;;;;;;;20.05;11.35;;;;;;;;;;5063548;28;20049;-81
2022/12/14 16:37:51;;;;;;;28.02;15.48;;;;;;;;;;5066201;28;20029;-81
2022/12/14 16:40:51;;;;;;;16.08;11.93;;;;;;;;;;5061725;28;20383;-82
2022/12/14 16:43:39;;;;;;;19.73;12.40;;;;;;;;;;5066150;28;20040;-82
2022/12/14 16:46:25;;;;;;;24.20;14.38;;;;;;;;;;5066402;28;20060;-81
2022/12/14 16:49:29;;;;;;;20.20;13.18;;;;;;;;;;5076062;28;20048;-81
2022/12/14 16:52:25;;;;;;;31.92;17.52;;;;;;;;;;5067734;28;20056;-82
2022/12/14 16:55:13;;;;;;;51.90;30.13;;;;;;;;;;5076408;28;20056;-81
2022/12/14 16:57:58;;;;;;;45.35;27.17;;;;;;;;;;5060362;28;20464;-81
2022/12/14 17:00:58;;;;;;;28.25;17.95;;;;;;;;;;5082681;28;20041;-81
2022/12/14 17:03:51;;;;;;;29.77;17.30;;;;;;;;;;5069372;28;20037;-81
2022/12/14 17:06:44;;;;;;;28.55;17.55;;;;;;;;;;5062150;28;20037;-81
2022/12/14 17:09:35;;;;;;;39.47;23.95;;;;;;;;;;5055904;28;20040;-82
2022/12/14 17:12:20;;;;;;;38.88;20.95;;;;;;;;;;5062061;28;20067;-80
2022/12/14 17:15:06;;;;;;;37.08;21.73;;;;;;;;;;5055883;28;20403;-82
2022/12/14 17:17:53;;;;;;;25.42;15.60;;;;;;;;;;5055848;28;20045;-81
2022/12/14 17:20:42;;;;;;;36.33;19.38;;;;;;;;;;5062145;28;20456;-80
2022/12/14 17:23:28;;;;;;;26.95;17.80;;;;;;;;;;5055436;28;20383;-82
2022/12/14 17:26:26;;;;;;;39.30;20.30;;;;;;;;;;5055043;28;20475;-81
2022/12/14 17:29:26;;;;;;;30.33;17.92;;;;;;;;;;5062368;28;20456;-81
2022/12/14 17:32:16;;;;;;;27.02;17.20;;;;;;;;;;5062266;28;20384;-82
2022/12/14 17:35:02;;;;;;;21.25;13.70;;;;;;;;;;5062052;28;20460;-81
2022/12/14 17:37:48;;;;;;;19.88;12.38;;;;;;;;;;5055637;28;20041;-81
2022/12/14 17:40:34;;;;;;;14.90;10.55;;;;;;;;;;5061860;28;20036;-79
2022/12/14 17:43:24;;;;;;;19.20;12.60;;;;;;;;;;5055721;28;20037;-80
2022/12/14 17:46:10;;;;;;;17.60;11.60;;;;;;;;;;5056294;28;20041;-81
2022/12/14 17:48:55;;;;;;;19.73;10.80;;;;;;;;;;5061469;28;20041;-81
2022/12/14 17:51:44;;;;;;;20.40;13.32;;;;;;;;;;5064335;28;20044;-79
2022/12/14 17:54:30;;;;;;;18.65;12.80;;;;;;;;;;5064473;28;20028;-81
2022/12/14 17:57:19;;;;;;;22.88;15.80;;;;;;;;;;5063403;28;20037;-82
2022/12/14 18:03:11;;;;;;;28.75;17.85;;;;;;;;;;5070181;28;20036;-83
2022/12/14 18:06:03;;;;;;;16.92;12.23;;;;;;;;;;5056544;28;20398;-80
2022/12/14 18:08:48;;;;;;;18.63;12.30;;;;;;;;;;5068699;28;20387;-81
2022/12/14 18:11:34;;;;;;;15.10;10.20;;;;;;;;;;5054713;28;20049;-80
2022/12/14 18:14:20;;;;;;;21.25;14.43;;;;;;;;;;5069067;28;20040;-81
2022/12/14 18:17:05;;;;;;;15.20;9.70;;;;;;;;;;5073923;28;20384;-80
2022/12/14 18:19:51;;;;;;;17.05;11.15;;;;;;;;;;5074876;28;20041;-81
2022/12/14 18:22:37;;;;;;;15.65;11.82;;;;;;;;;;5073972;28;20455;-81
2022/12/14 18:25:25;;;;;;;17.88;12.23;;;;;;;;;;5071511;28;20040;-82
2022/12/14 18:28:10;;;;;;;17.65;11.75;;;;;;;;;;5071170;28;20056;-83
2022/12/14 18:31:00;;;;;;;58.67;33.70;;;;;;;;;;5047306;28;20471;-81
2022/12/14 18:33:46;;;;;;;15.77;10.75;;;;;;;;;;5061341;28;20037;-82
2022/12/14 18:36:35;;;;;;;17.75;11.07;;;;;;;;;;5070774;28;20034;-85
2022/12/14 18:39:20;;;;;;;15.80;11.57;;;;;;;;;;5067263;28;20033;-81
2022/12/14 18:42:05;;;;;;;16.00;11.52;;;;;;;;;;5064562;28;20033;-82
2022/12/14 18:44:51;;;;;;;17.25;10.70;;;;;;;;;;5069440;28;20045;-82
2022/12/14 18:47:36;;;;;;;18.90;12.98;;;;;;;;;;5068993;28;20040;-82
2022/12/14 18:50:23;;;;;;;18.27;12.00;;;;;;;;;;5061602;28;20036;-82
2022/12/14 18:53:16;;;;;;;20.45;13.30;;;;;;;;;;5070120;28;20036;-82
2022/12/14 18:56:06;;;;;;;18.13;11.48;;;;;;;;;;5071801;28;20052;-82
2022/12/14 18:58:52;;;;;;;21.38;14.13;;;;;;;;;;5073958;28;20063;-83
2022/12/14 19:01:38;;;;;;;24.50;14.95;;;;;;;;;;5074462;28;20044;-80
2022/12/14 19:04:23;;;;;;;17.15;11.82;;;;;;;;;;5073605;28;20036;-82
2022/12/14 19:07:09;;;;;;;17.77;11.98;;;;;;;;;;5073344;28;20037;-81
2022/12/14 19:09:54;;;;;;;20.65;12.02;;;;;;;;;;5073896;28;20029;-82
2022/12/14 19:12:44;;;;;;;16.42;10.75;;;;;;;;;;5073463;28;20044;-81
2022/12/14 19:15:33;;;;;;;16.38;10.75;;;;;;;;;;5080452;28;20411;-82
2022/12/14 19:18:18;;;;;;;22.40;15.05;;;;;;;;;;5080416;28;20044;-82
2022/12/14 19:21:04;;;;;;;18.23;12.18;;;;;;;;;;5073372;28;20036;-82
2022/12/14 19:23:49;;;;;;;18.50;13.10;;;;;;;;;;5075870;28;20044;-83
2022/12/14 19:26:36;;;;;;;24.00;15.50;;;;;;;;;;5080125;28;20045;-82
2022/12/14 19:29:21;;;;;;;31.10;20.73;;;;;;;;;;5073354;28;20040;-81
2022/12/14 19:32:07;;;;;;;24.50;15.68;;;;;;;;;;5079651;28;20048;-82
2022/12/14 19:34:55;;;;;;;21.95;14.57;;;;;;;;;;5079813;28;20044;-81
2022/12/14 19:37:40;;;;;;;21.95;14.07;;;;;;;;;;5065369;28;20040;-81
2022/12/14 19:40:25;;;;;;;22.85;13.73;;;;;;;;;;5073676;28;20044;-81
2022/12/14 19:43:11;;;;;;;25.55;14.68;;;;;;;;;;5079728;28;20036;-82
2022/12/14 19:45:56;;;;;;;22.75;16.15;;;;;;;;;;5073352;28;20045;-82
2022/12/14 19:48:41;;;;;;;16.65;11.65;;;;;;;;;;5073471;28;20052;-81
2022/12/14 19:51:27;;;;;;;20.50;13.75;;;;;;;;;;5073301;28;20048;-83
2022/12/14 19:54:12;;;;;;;18.95;12.93;;;;;;;;;;5062127;28;20032;-81
2022/12/14 19:56:57;;;;;;;20.17;12.98;;;;;;;;;;5061847;28;20467;-81
2022/12/14 19:59:43;;;;;;;14.60;10.57;;;;;;;;;;5073193;28;20044;-82
2022/12/14 20:02:28;;;;;;;16.95;10.95;;;;;;;;;;5079816;28;20478;-81
2022/12/14 20:05:14;;;;;;;17.55;11.77;;;;;;;;;;5058044;28;20041;-82
2022/12/14 20:07:59;;;;;;;17.13;11.95;;;;;;;;;;5072944;28;20037;-82
2022/12/14 20:10:45;;;;;;;16.42;11.02;;;;;;;;;;5078783;28;20463;-82
2022/12/14 20:13:31;;;;;;;15.43;10.65;;;;;;;;;;5072416;28;20040;-82
2022/12/14 20:16:17;;;;;;;15.57;10.52;;;;;;;;;;5073365;28;20052;-81
2022/12/14 20:19:03;;;;;;;14.82;10.40;;;;;;;;;;5080104;28;20045;-80
2022/12/14 20:21:47;;;;;;;14.43;9.95;;;;;;;;;;5073161;28;20382;-80
2022/12/14 20:24:32;;;;;;;17.27;10.45;;;;;;;;;;5072684;28;20048;-82
2022/12/14 20:27:18;;;;;;;14.13;8.70;;;;;;;;;;5079909;28;20045;-81
2022/12/14 20:30:04;;;;;;;12.77;7.85;;;;;;;;;;5079839;28;20045;-83
2022/12/14 20:32:49;;;;;;;10.38;7.85;;;;;;;;;;5072683;28;20044;-81
2022/12/14 20:35:34;;;;;;;16.42;10.43;;;;;;;;;;5073554;28;20040;-81
2022/12/14 20:38:20;;;;;;;11.30;7.63;;;;;;;;;;5074022;28;20036;-82
2022/12/14 20:41:13;;;;;;;10.68;7.03;;;;;;;;;;5072362;28;20048;-81
2022/12/14 20:44:00;;;;;;;97.18;43.40;;;;;;;;;;5080067;28;20040;-81
2022/12/14 20:46:46;;;;;;;8.35;6.85;;;;;;;;;;5075788;28;20064;-82
2022/12/14 20:49:31;;;;;;;8.65;6.35;;;;;;;;;;5076284;28;20044;-81
2022/12/14 20:52:17;;;;;;;9.80;6.53;;;;;;;;;;5076053;28;20379;-81
2022/12/14 20:55:02;;;;;;;16.95;10.15;;;;;;;;;;5076211;28;20037;-82
2022/12/14 20:57:47;;;;;;;10.27;7.35;;;;;;;;;;5082495;28;20041;-81
2022/12/14 21:00:35;;;;;;;11.70;8.48;;;;;;;;;;5075724;28;20498;-82
2022/12/14 21:03:20;;;;;;;10.57;7.20;;;;;;;;;;5082422;28;20391;-83
2022/12/14 21:06:06;;;;;;;11.45;7.57;;;;;;;;;;5075923;28;20040;-82
2022/12/14 21:09:03;;;;;;;11.18;8.00;;;;;;;;;;5075606;28;20048;-81
2022/12/14 21:14:55;;;;;;;11.10;7.50;;;;;;;;;;5075963;28;20041;-83
2022/12/14 21:17:40;;;;;;;7.60;5.63;;;;;;;;;;5076061;28;20471;-79
2022/12/14 21:20:25;;;;;;;14.88;9.57;;;;;;;;;;5076144;28;20052;-79
2022/12/14 21:23:10;;;;;;;15.32;9.27;;;;;;;;;;5074991;28;20044;-81
2022/12/14 21:26:03;;;;;;;11.20;7.07;;;;;;;;;;5075801;28;20044;-82
2022/12/14 21:28:48;;;;;;;23.45;13.50;;;;;;;;;;5075471;28;20037;-80
2022/12/14 21:31:34;;;;;;;14.38;9.85;;;;;;;;;;5075517;28;20037;-82
2022/12/14 21:34:22;;;;;;;13.20;9.25;;;;;;;;;;5066945;28;20037;-83
2022/12/14 21:37:08;;;;;;;11.18;7.32;;;;;;;;;;5065983;28;20399;-82
2022/12/14 21:39:53;;;;;;;10.15;6.35;;;;;;;;;;5064816;28;20033;-80
2022/12/14 21:42:38;;;;;;;24.35;12.50;;;;;;;;;;5065358;28;20032;-81
2022/12/14 21:45:24;;;;;;;15.40;8.18;;;;;;;;;;5065457;28;20028;-82
2022/12/14 21:48:12;;;;;;;13.27;8.70;;;;;;;;;;5063628;28;20049;-84
2022/12/14 21:50:57;;;;;;;14.65;8.55;;;;;;;;;;5071149;28;20063;-80
2022/12/14 21:54:00;;;;;;;14.75;8.90;;;;;;;;;;5071762;28;20044;-81
2022/12/14 21:59:49;;;;;;;9.60;6.40;;;;;;;;;;5063118;28;20380;-82
2022/12/14 22:02:38;;;;;;;8.50;5.75;;;;;;;;;;5063688;28;20029;-82
2022/12/14 22:05:23;;;;;;;11.23;7.85;;;;;;;;;;5064476;28;20029;-81
2022/12/14 22:08:08;;;;;;;15.73;9.55;;;;;;;;;;5063024;28;20045;-81
2022/12/14 22:10:53;;;;;;;8.57;6.68;;;;;;;;;;5055052;28;20028;-81
2022/12/14 22:13:39;;;;;;;33.63;17.63;;;;;;;;;;5054550;28;20037;-80
2022/12/14 22:16:24;;;;;;;19.73;11.93;;;;;;;;;;5061519;28;20044;-81
2022/12/14 22:19:19;;;;;;;23.55;12.93;;;;;;;;;;5054606;28;20464;-80
2022/12/14 22:22:04;;;;;;;32.03;16.88;;;;;;;;;;5054591;28;20036;-80
2022/12/14 22:24:50;;;;;;;19.92;12.00;;;;;;;;;;5054736;28;20396;-81
2022/12/14 22:27:36;;;;;;;34.92;20.73;;;;;;;;;;5054765;28;20056;-79
2022/12/14 22:30:21;;;;;;;8.07;5.57;;;;;;;;;;5039563;28;20049;-80
2022/12/14 22:33:07;;;;;;;27.80;16.45;;;;;;;;;;5039393;28;20476;-80
2022/12/14 22:35:52;;;;;;;13.57;8.68;;;;;;;;;;5060980;28;20048;-79
2022/12/14 22:38:38;;;;;;;30.08;16.25;;;;;;;;;;5054292;28;20037;-83
2022/12/14 22:41:24;;;;;;;15.23;8.35;;;;;;;;;;5053515;28;20040;-82
2022/12/14 22:44:11;;;;;;;14.70;8.18;;;;;;;;;;5054110;28;20468;-79
2022/12/14 22:46:57;;;;;;;9.57;6.43;;;;;;;;;;5054036;28;20041;-79
2022/12/14 22:49:42;;;;;;;18.05;10.93;;;;;;;;;;5054129;28;20041;-79
2022/12/14 22:52:28;;;;;;;9.45;6.88;;;;;;;;;;5061033;28;20041;-79
2022/12/14 22:55:13;;;;;;;7.65;4.97;;;;;;;;;;5056518;28;20048;-82
2022/12/14 22:57:59;;;;;;;24.80;12.48;;;;;;;;;;5064525;28;20472;-80
2022/12/14 23:00:47;;;;;;;8.63;6.10;;;;;;;;;;5063291;28;20041;-81
2022/12/14 23:03:32;;;;;;;10.77;6.90;;;;;;;;;;5054090;28;20040;-80
2022/12/14 23:06:18;;;;;;;9.32;5.95;;;;;;;;;;5054209;28;20041;-82
